createdAt,value
2018-02-15T00:03:37.000Z,1006.566
2018-02-15T00:13:38.000Z,1006.635
2018-02-15T00:23:37.000Z,1006.553
2018-02-15T00:33:37.000Z,1006.495
2018-02-15T00:43:37.000Z,1006.137
2018-02-15T00:53:37.000Z,1005.993
2018-02-15T01:03:37.000Z,1005.622
2018-02-15T01:13:37.000Z,1005.939
2018-02-15T01:23:37.000Z,1005.723
2018-02-15T01:33:37.000Z,1005.508
2018-02-15T01:43:37.000Z,1005.467
2018-02-15T01:53:37.000Z,1005.676
2018-02-15T02:03:37.000Z,1005.416
2018-02-15T02:13:38.000Z,1005.437
2018-02-15T02:23:38.000Z,1005.285
2018-02-15T02:33:37.000Z,1005.055
2018-02-15T02:43:37.000Z,1004.859
2018-02-15T02:53:37.000Z,1004.833
2018-02-15T03:03:37.000Z,1004.699
2018-02-15T03:13:37.000Z,1004.493
2018-02-15T03:23:37.000Z,1004.397
2018-02-15T03:33:37.000Z,1004.357
2018-02-15T03:43:37.000Z,1004.472
2018-02-15T03:53:37.000Z,1004.46
2018-02-15T04:03:37.000Z,1004.408
2018-02-15T04:13:37.000Z,1004.303
2018-02-15T04:23:37.000Z,1004.322
2018-02-15T04:33:37.000Z,1004.222
2018-02-15T04:43:37.000Z,1004.334
2018-02-15T04:53:37.000Z,1004.388
2018-02-15T05:03:37.000Z,1004.341
2018-02-15T05:13:37.000Z,1004.209
2018-02-15T05:23:37.000Z,1003.991
2018-02-15T05:33:37.000Z,1003.768
2018-02-15T05:43:37.000Z,1003.675
2018-02-15T05:53:37.000Z,1003.701
2018-02-15T06:03:37.000Z,1003.526
2018-02-15T06:13:37.000Z,1003.552
2018-02-15T06:23:37.000Z,1003.41
2018-02-15T06:33:37.000Z,1003.275
2018-02-15T06:43:38.000Z,1003.238
2018-02-15T06:53:37.000Z,1003.177
2018-02-15T07:03:37.000Z,1002.952
2018-02-15T07:13:37.000Z,1002.877
2018-02-15T07:23:37.000Z,1003.013
2018-02-15T07:33:38.000Z,1003.169
2018-02-15T07:43:38.000Z,1003.249
2018-02-15T07:53:38.000Z,1003.122
2018-02-15T08:03:38.000Z,1003.104
2018-02-15T08:13:38.000Z,1003.069
2018-02-15T08:23:38.000Z,1003.036
2018-02-15T08:33:38.000Z,1002.995
2018-02-15T08:43:38.000Z,1003.006
2018-02-15T08:53:38.000Z,1002.976
2018-02-15T09:03:38.000Z,1003.029
2018-02-15T09:13:38.000Z,1002.915
2018-02-15T09:23:38.000Z,1002.874
2018-02-15T09:33:38.000Z,1002.831
2018-02-15T09:43:39.000Z,1002.78
2018-02-15T09:53:38.000Z,1002.865
2018-02-15T10:03:38.000Z,1002.974
2018-02-15T10:13:38.000Z,1002.944
2018-02-15T10:23:38.000Z,1003.022
2018-02-15T10:33:38.000Z,1002.893
2018-02-15T10:43:38.000Z,1002.925
2018-02-15T10:53:38.000Z,1002.918
2018-02-15T11:03:38.000Z,1002.96
2018-02-15T11:13:38.000Z,1002.979
2018-02-15T11:23:38.000Z,1003.063
2018-02-15T11:33:38.000Z,1003.137
2018-02-15T11:43:38.000Z,1003.168
2018-02-15T11:53:38.000Z,1003.318
2018-02-15T12:03:38.000Z,1003.316
2018-02-15T12:13:38.000Z,1003.12
2018-02-15T12:23:38.000Z,1003.233
2018-02-15T12:33:38.000Z,1003.104
2018-02-15T12:43:38.000Z,1003.065
2018-02-15T12:53:38.000Z,1002.958
2018-02-15T13:03:38.000Z,1003.071
2018-02-15T13:13:38.000Z,1003.084
2018-02-15T13:23:38.000Z,1003.154
2018-02-15T13:33:38.000Z,1003.12
2018-02-15T13:43:38.000Z,1003.294
2018-02-15T13:53:38.000Z,1003.348
2018-02-15T14:03:38.000Z,1003.349
2018-02-15T14:13:38.000Z,1003.318
2018-02-15T14:23:38.000Z,1003.506
2018-02-15T14:33:38.000Z,1003.599
2018-02-15T14:43:38.000Z,1003.788
2018-02-15T14:53:39.000Z,1003.858
2018-02-15T15:03:38.000Z,1003.824
2018-02-15T15:13:38.000Z,1003.967
2018-02-15T15:23:38.000Z,1004.285
2018-02-15T15:33:38.000Z,1004.344
2018-02-15T15:43:38.000Z,1004.438
2018-02-15T15:53:39.000Z,1004.414
2018-02-15T16:03:39.000Z,1004.452
2018-02-15T16:13:39.000Z,1004.57
2018-02-15T16:23:39.000Z,1004.794
2018-02-15T16:33:39.000Z,1004.902
2018-02-15T16:43:39.000Z,1005.055
2018-02-15T16:53:39.000Z,1005.25
2018-02-15T17:03:39.000Z,1005.396
2018-02-15T17:13:39.000Z,1005.483
2018-02-15T17:23:39.000Z,1005.35
2018-02-15T17:33:39.000Z,1005.572
2018-02-15T17:43:39.000Z,1005.711
2018-02-15T17:53:39.000Z,1005.798
2018-02-15T18:03:40.000Z,1005.998
2018-02-15T18:13:39.000Z,1006.195
2018-02-15T18:23:39.000Z,1006.42
2018-02-15T18:33:39.000Z,1006.448
2018-02-15T18:43:39.000Z,1006.57
2018-02-15T18:53:39.000Z,1006.589
2018-02-15T19:03:39.000Z,1006.775
2018-02-15T19:13:39.000Z,1006.897
2018-02-15T19:23:40.000Z,1007.05
2018-02-15T19:33:39.000Z,1007.173
2018-02-15T19:43:39.000Z,1007.317
2018-02-15T19:53:39.000Z,1007.472
2018-02-15T20:03:41.000Z,1007.561
2018-02-15T20:13:39.000Z,1007.708
2018-02-15T20:23:39.000Z,1007.858
2018-02-15T20:33:39.000Z,1007.916
2018-02-15T20:43:39.000Z,1008
2018-02-15T20:53:41.000Z,1008.103
2018-02-15T21:03:39.000Z,1008.325
2018-02-15T21:13:39.000Z,1008.373
2018-02-15T21:23:43.000Z,1008.481
2018-02-15T21:33:41.000Z,1008.581
2018-02-15T21:43:39.000Z,1008.786
2018-02-15T21:53:39.000Z,1008.896
2018-02-15T22:03:39.000Z,1009.058
2018-02-15T22:13:41.000Z,1009.267
2018-02-15T22:23:39.000Z,1009.379
2018-02-15T22:33:40.000Z,1009.504
2018-02-15T22:43:39.000Z,1009.647
2018-02-15T22:53:41.000Z,1009.805
2018-02-15T23:03:40.000Z,1009.874
2018-02-15T23:13:40.000Z,1009.953
2018-02-15T23:23:39.000Z,1010.054
2018-02-15T23:33:40.000Z,1010.168
2018-02-15T23:43:41.000Z,1010.223
2018-02-15T23:53:39.000Z,1010.314
